Forside
METAR-TAF:

METAR-TAF

Lufthavne :

Rice Lake Regional Airport (Carl's Field)

Rice Lake, Wisconsin, USA

Breddekreds: 45-25-05N, længdekreds: 091-46-25W, højde: 337 m

Aktuelle vejr

Denne rapport blev lavet for 12 minutter siden, kl. 03:35 UTC
Vind 5 kt fra vestsydvest
Temperatur -21°C
Fugtighed 44%
Tryk 1022 hPa
Sigt: 16.1 km
skyfri

METAR: KRPD 110335Z AUTO 24005KT 10SM CLR M21/M30 A3017 RMK AO2 T12101297

Tid: 21:47 (03:47 UTC)


TAF: fraværende

Vejrobservationer og prognoser fra mere end 4000 lufthavne (METAR og TAF).

De gule og røde prikker repræsenterer de meteorologiske stationer.

Flyt musen over at se navnet på stationen.

Så klik over at se vejr observationer og prognoser.

At skifte det kort: Klik på de grønne knapper med et sort kors for at zoome ind; på den grønne knap med en bindestreg for at zoome ud; eller på de grønne pile for tilstødende kort.


METAR-TAF: